• Join FlightAware (Why Join?)
  • Login
  • US Flag 
04:06PM EST


 

Airport Tracker/Info


-or-


 

Live Flight TrackerFlight Track Log ✈ N15RH ✈ 08-Jun-2014 ✈ 4I7 - KFTY

Flight Track Log - Related Links

Times and Time Zones

All times are in EDT time to prevent confusion due to time zone crossing. See the N15RH flight status page for this flight to view local times or setup timezone preferences in your user account.

Time Position Orientation Groundspeed Altitude Reporting Facility
EDT Latitude Longitude Course Direction KTS MPH feet Rate Location/Type
10:49AM 39.6000 -86.7667 159° South 165 190 2,300  Level Indianapolis TRACON
10:50AM 39.5667 -86.7500 159° South 166 191 2,500 60 Climbing Indianapolis TRACON
10:51AM 39.5250 -86.7375 167° South 170 196 2,500 360 Level Indianapolis Center
10:52AM 39.4778 -86.7217 165° South 176 203 3,300 720 Climbing Indianapolis Center
10:53AM 39.4358 -86.6858 147° Southeast 156 180 4,000 540 Climbing Indianapolis Center
10:54AM 39.4000 -86.6547 146° Southeast 156 180 4,500 480 Climbing Indianapolis Center
10:55AM 39.3644 -86.6244 147° Southeast 156 180 5,100 480 Climbing Indianapolis Center
10:56AM 39.3269 -86.5933 147° Southeast 156 180 5,500 420 Climbing Indianapolis Center
10:57AM 39.2883 -86.5600 146° Southeast 162 186 6,000 360 Climbing Indianapolis Center
10:58AM 39.2489 -86.5267 147° Southeast 167 192 6,300 360 Climbing Indianapolis Center
10:59AM 39.2092 -86.4928 147° Southeast 169 194 6,800 300 Climbing Indianapolis Center
11:00AM 39.1606 -86.4528 147° Southeast 170 196 7,000 60 Climbing Indianapolis Center
11:01AM 39.1150 -86.4147 147° Southeast 186 214 7,000  Level Indianapolis Center
11:02AM 39.0686 -86.3758 147° Southeast 194 223 7,000  Level Indianapolis Center
11:03AM 39.0219 -86.3367 147° Southeast 197 227 7,000  Level Indianapolis Center
11:04AM 38.9761 -86.2989 147° Southeast 197 227 7,000  Level Indianapolis Center
11:05AM 38.9311 -86.2611 147° Southeast 197 227 7,000  Level Indianapolis Center
11:06AM 38.8781 -86.2156 146° Southeast 197 227 7,000  Level Indianapolis Center
11:07AM 38.8328 -86.1786 148° Southeast 197 227 7,000  Level Indianapolis Center
11:08AM 38.7883 -86.1408 146° Southeast 196 226 7,000  Level Indianapolis Center
11:13AM 38.5429 -85.9373 147° Southeast 191 220 7,100  Climbing FlightAware ADS-B (EHVB)
11:14AM 38.5239 -85.9216 147° Southeast 191 220 7,100  Level FlightAware ADS-B (EHVB)
11:14AM 38.5072 -85.9078 147° Southeast 189 217 7,100  Level FlightAware ADS-B (EHVB)
11:15AM 38.4642 -85.8724 147° Southeast 184 212 7,100  Level FlightAware ADS-B (EHVB)
11:16AM 38.4458 -85.8572 147° Southeast 185 213 7,100  Level FlightAware ADS-B (EHVB)
11:16AM 38.4288 -85.8433 147° Southeast 184 212 7,100  Level FlightAware ADS-B (EHVB)
11:16AM 38.4131 -85.8304 147° Southeast 182 209 7,100  Level FlightAware ADS-B (EHVB)
11:17AM 38.4023 -85.8215 147° Southeast 182 209 7,100  Level FlightAware ADS-B (EHVB)
11:17AM 38.3855 -85.8078 147° Southeast 182 209 7,100  Level FlightAware ADS-B (EHVB)
11:17AM 38.3668 -85.7924 147° Southeast 183 211 7,100  Level FlightAware ADS-B (EHVB)
11:18AM 38.3570 -85.7845 147° Southeast 182 209 7,100  Level FlightAware ADS-B (EHVB)
11:18AM 38.3368 -85.7678 147° Southeast 181 208 7,100  Level FlightAware ADS-B (EHVB)
11:18AM 38.3252 -85.7583 147° Southeast 182 209 7,100  Level FlightAware ADS-B (EHVB)
11:19AM 38.3083 -85.7445 147° Southeast 182 209 7,100  Level FlightAware ADS-B (EHVB)
11:19AM 38.2901 -85.7297 147° Southeast 181 208 7,100  Level FlightAware ADS-B (EHVB)
11:20AM 38.2745 -85.7168 147° Southeast 181 208 7,100  Level FlightAware ADS-B (KBRY)
11:20AM 38.2499 -85.6967 147° Southeast 185 213 7,100  Level FlightAware ADS-B (EHVB)
11:21AM 38.2226 -85.6744 147° Southeast 182 209 7,100  Level FlightAware ADS-B (KBRY)
11:22AM 38.1826 -85.6418 147° Southeast 183 211 7,100  Level FlightAware ADS-B (KBRY)
11:23AM 38.1304 -85.5993 148° Southeast 186 214 7,100  Level FlightAware ADS-B (KBRY)
11:24AM 38.0865 -85.5728 170° South 177 204 7,100  Level FlightAware ADS-B (KBRY)
11:25AM 38.0354 -85.5588 168° South 176 203 7,100  Level FlightAware ADS-B (KBRY)
11:26AM 37.9758 -85.5422 168° South 177 204 7,100  Level FlightAware ADS-B (KBRY)
11:27AM 37.9150 -85.5255 168° South 182 209 7,100  Level FlightAware ADS-B (KBRY)
11:28AM 37.8647 -85.5117 168° South 185 213 7,100  Level FlightAware ADS-B (KBRY)
11:29AM 37.8138 -85.4977 168° South 186 214 7,100  Level FlightAware ADS-B (KBRY)
11:30AM 37.7656 -85.4845 168° South 180 207 7,100  Level FlightAware ADS-B (KBRY)
11:31AM 37.7177 -85.4715 168° South 179 206 7,100  Level FlightAware ADS-B (KBRY)
11:32AM 37.6680 -85.4579 168° South 175 201 7,100  Level FlightAware ADS-B (KBRY)
11:33AM 37.6204 -85.4449 168° South 172 198 7,100  Level FlightAware ADS-B (KBRY)
11:35AM 37.5282 -85.4198 168° South 175 201 7,100  Level FlightAware ADS-B (KBRY)
11:36AM 37.4828 -85.4075 168° South 174 200 7,100 -120 Level FlightAware ADS-B (KBRY)
11:38AM 37.4211 -85.3894 168° South 173 199 6,900 -120 Descending Indianapolis Center
11:39AM 37.3728 -85.3767 168° South 174 200 6,900  Level Indianapolis Center
11:40AM 37.3250 -85.3639 168° South 174 200 6,900  Level Indianapolis Center
11:41AM 37.2686 -85.3483 168° South 175 201 6,900  Level Indianapolis Center
11:42AM 37.2197 -85.3358 168° South 175 201 6,900  Level Indianapolis Center
11:43AM 37.1719 -85.3225 167° South 176 203 6,900  Level Indianapolis Center
11:44AM 37.1236 -85.3103 169° South 176 203 6,900  Level Indianapolis Center
11:45AM 37.0750 -85.2972 168° South 176 203 6,900  Level Indianapolis Center
11:46AM 37.0244 -85.2842 168° South 177 204 6,900  Level Indianapolis Center
11:47AM 36.9764 -85.2711 168° South 177 204 6,900  Level Indianapolis Center
11:48AM 36.9167 -85.2561 169° South 179 206 6,900  Level Indianapolis Center
11:49AM 36.8656 -85.2411 167° South 183 211 6,900  Level Indianapolis Center
11:50AM 36.8156 -85.2281 168° South 183 211 6,900  Level Indianapolis Center
11:51AM 36.7656 -85.2147 168° South 183 211 7,000  Climbing Indianapolis Center
11:52AM 36.7167 -85.2017 168° South 183 211 7,000  Level Indianapolis Center
11:53AM 36.6692 -85.1894 168° South 180 207 7,000  Level Indianapolis Center
11:54AM 36.6225 -85.1761 167° South 176 203 7,000  Level Indianapolis Center
11:55AM 36.5644 -85.1603 168° South 176 203 7,000  Level Indianapolis Center
11:56AM 36.5167 -85.1500 170° South 176 203 7,000  Level Indianapolis Center
11:57AM 36.4683 -85.1389 170° South 176 203 7,000  Level Indianapolis Center
11:58AM 36.4206 -85.1281 170° South 176 203 7,000  Level Indianapolis Center
11:59AM 36.3742 -85.1164 169° South 175 201 7,000  Level Indianapolis Center
12:00PM 36.3261 -85.1058 170° South 175 201 7,000  Level Indianapolis Center
12:01PM 36.2775 -85.0933 168° South 175 201 7,000  Level Indianapolis Center
12:02PM 36.2300 -85.0839 171° South 175 201 7,000  Level Indianapolis Center
12:04PM 36.1736 -85.0697 169° South 175 201 7,000  Level Indianapolis Center
12:05PM 36.1269 -85.0589 169° South 174 200 7,100  Climbing Indianapolis Center
12:06PM 36.0819 -85.0478 169° South 169 194 7,000 -60 Descending Indianapolis Center
12:07PM 36.0369 -85.0386 171° South 168 193 7,000 -240 Level Indianapolis Center
12:08PM 35.9900 -85.0450 186° South 169 194 6,600 -360 Descending Indianapolis Center
12:09PM 35.9378 -85.0503 185° South 175 201 6,300 -300 Descending Indianapolis Center
12:10PM 35.8872 -85.0556 185° South 176 203 6,100 -180 Descending Indianapolis Center
12:10PM 35.8539 -85.0583 184° South 177 204 6,100  Level Atlanta Center
12:11PM 35.8078 -85.0656 187° South 177 204 6,100  Level Atlanta Center
12:12PM 35.7639 -85.0700 185° South 177 204 6,100  Level Atlanta Center
12:13PM 35.7181 -85.0747 185° South 177 204 6,100  Level Atlanta Center
12:14PM 35.6700 -85.0792 184° South 177 204 6,100 -60 Level Atlanta Center
12:15PM 35.6242 -85.0836 185° South 177 204 6,000  Descending Atlanta Center
12:16PM 35.5781 -85.0908 187° South 177 204 6,100  Climbing Atlanta Center
12:17PM 35.5322 -85.0953 185° South 177 204 6,100  Level Atlanta Center
12:18PM 35.4864 -85.0997 185° South 177 204 6,100 -60 Level Atlanta Center
12:19PM 35.4403 -85.1042 184° South 177 204 6,000 -60 Descending Atlanta Center
12:20PM 35.3944 -85.1089 185° South 177 204 6,000  Level Atlanta Center
12:21PM 35.3464 -85.1133 184° South 177 204 6,100  Climbing Atlanta Center
12:22PM 35.3006 -85.1203 187° South 177 204 6,000 -120 Descending Atlanta Center
12:35PM 34.6806 -85.1453 148° Southeast 164 189 5,000 -120 Descending Atlanta Center
12:36PM 34.6398 -85.1371 178° South  Level FlightAware Approximate
12:36PM 34.6306 -85.1394 175° South 164 189 5,000  Level Atlanta Center
12:37PM 34.5898 -85.1350 178° South  Level FlightAware Approximate
12:37PM 34.5886 -85.1364 177° South 164 189 5,000  Level Atlanta Center
12:38PM 34.5421 -85.1255 141° Southeast  Level FlightAware Approximate
12:38PM 34.5386 -85.1331 177° South 164 189 5,000  Level Atlanta Center
12:39PM 34.5005 -85.0919 148° Southeast  Level FlightAware Approximate
12:39PM 34.4928 -85.1325 179° South 164 189 5,000  Level Atlanta Center
12:40PM 34.4580 -85.0599 148° Southeast  Level FlightAware Approximate
12:40PM 34.4822 -85.1325 180° South 164 189 5,000  Level Atlanta Center
12:41PM 34.4061 -85.0181 129° Southeast 176 203 5,000  Level Atlanta Center
12:42PM 34.3625 -84.9875 150° Southeast 181 208 5,000  Level Atlanta Center
12:43PM 34.3169 -84.9542 149° Southeast 186 214 5,000  Level Atlanta Center
12:44PM 34.2733 -84.9211 148° Southeast 186 214 5,000  Level Atlanta Center
12:45PM 34.2317 -84.8881 147° Southeast 186 214 5,000  Level Atlanta Center
12:46PM 34.1861 -84.8575 151° Southeast 186 214 5,000 -60 Level Atlanta Center
12:47PM 34.1403 -84.8219 147° Southeast 186 214 4,900 -300 Descending Atlanta Center
12:48PM 34.0967 -84.7889 148° Southeast 181 208 4,500 -420 Descending Atlanta Center
12:49PM 34.0531 -84.7558 148° Southeast 181 208 4,100 -300 Descending Atlanta Center
12:50PM 34.0114 -84.7231 147° Southeast 181 208 4,000 -120 Descending Atlanta Center
12:52PM 33.9500 -84.6667 143° Southeast 174 200 3,900 -300 Descending Atlanta TRACON
12:53PM 33.9000 -84.6333 151° Southeast 154 177 3,300 -540 Descending Atlanta TRACON
12:54PM 33.8667 -84.6167 157° South 170 196 2,900 -480 Descending Atlanta TRACON
12:55PM 33.8333 -84.5667 129° Southeast 175 201 2,400 -600 Descending Atlanta TRACON
12:56PM 33.8000 -84.5333 140° Southeast 134 154 1,800 15,300 Descending Atlanta TRACON
12:57PM 33.8000 -84.5000 90° East 121 139 33,000 31,200 Climbing Atlanta TRACON
01:00PM 33.7791 -84.5214 173° South  Level Estimated
01:07PM 33.7791 -84.5214 337° Northwest  Level Estimated